M I D A S
Marine Information and Data Acquisition System
Tripno 1156 of the Zeeleeuw from 2006-08-30 06:22:36 to 2006-08-30 15:14:32
Back to CruiseResearch ActivitiesStationsMapUnderway DataData graphs

EquipmentUnitsComments
TimeDGPSUTC
LatitudeDGPSDM.mWGS84
LongitudeDGPSDM.mWGS84
SpeedMeteo Stationm/sRelative wind speed
DirectionMeteo StationdegRelative wind direction
TemperatureMeteo Stationdeg CelciusAir temperature
PressureMeteo StationPaAtmospheric pressure
HumidityMeteo Station%Relative humidity
Missing or incorrect values are displayed as -999
Metereological data collected by the RV Zeeleeuw from 2006-08-30 06:22:43 to 2006-08-30 15:25:18
Time Latitude Longitude Speed Direction Temperature Pressure Humidity
2006-08-30 06:23 51°13.61 2°56.04 9.9 53 15.6 101560 69
2006-08-30 06:24 51°13.633 2°55.959 6.8 52 15.5 101570 69
2006-08-30 06:25 51°13.664 2°55.88 5.3 57 15.6 101560 70
2006-08-30 06:26 51°13.689 2°55.804 6.6 56 15.8 101580 68
2006-08-30 06:27 51°13.702 2°55.741 6 59 15.7 101580 68
2006-08-30 06:28 51°13.707 2°55.738 6.9 304 15.7 101570 68
2006-08-30 06:29 51°13.704 2°55.742 6.1 306 15.7 101560 68
2006-08-30 06:30 51°13.715 2°55.737 6.9 301 15.7 101560 68
2006-08-30 06:31 51°13.768 2°55.686 9.6 328 15.7 101560 68
2006-08-30 06:32 51°13.854 2°55.617 9.4 303 15.6 101550 67
2006-08-30 06:33 51°13.962 2°55.541 12.7 304 15.6 101550 68
2006-08-30 06:34 51°14.076 2°55.463 12.3 308 15.7 101540 70
2006-08-30 06:35 51°14.191 2°55.36 12.5 325 15.8 101550 71
2006-08-30 06:36 51°14.296 2°55.203 14.1 329 15.8 101540 72
2006-08-30 06:37 51°14.397 2°55.022 15.3 324 15.8 101540 71
2006-08-30 06:38 51°14.526 2°54.874 15.8 303 15.8 101530 71
2006-08-30 06:39 51°14.685 2°54.752 15.7 305 15.8 101540 70
2006-08-30 06:40 51°14.856 2°54.633 15.7 303 15.8 101540 69
2006-08-30 06:41 51°15.032 2°54.509 15.7 307 15.8 101520 69
2006-08-30 06:42 51°15.195 2°54.392 16.1 305 15.7 101530 70
2006-08-30 06:43 51°15.362 2°54.268 15.7 303 15.7 101510 69
2006-08-30 06:44 51°15.533 2°54.139 16.9 305 15.8 101550 72
2006-08-30 06:45 51°15.697 2°54.013 17.6 305 15.8 101560 72
2006-08-30 06:46 51°15.868 2°53.893 15.9 308 15.7 101540 71
2006-08-30 06:47 51°16.041 2°53.778 17.8 303 15.7 101540 72
2006-08-30 06:48 51°16.217 2°53.679 15.3 306 15.6 101520 70
2006-08-30 06:49 51°16.4 2°53.586 17.2 304 15.7 101510 70
2006-08-30 06:50 51°16.569 2°53.499 17 306 15.6 101490 69
2006-08-30 06:51 51°16.744 2°53.431 15.9 303 15.6 101510 70
2006-08-30 06:52 51°16.924 2°53.369 16.9 307 15.5 101510 68
2006-08-30 06:53 51°17.113 2°53.318 17.2 306 15.5 101530 68
2006-08-30 06:54 51°17.301 2°53.284 16.4 306 15.6 101520 68
2006-08-30 06:55 51°17.499 2°53.287 14 33 15.6 101530 68
2006-08-30 06:56 51°17.682 2°53.349 15.6 36 15.7 101540 70
2006-08-30 06:57 51°17.868 2°53.413 16.2 34 15.7 101530 70
2006-08-30 06:58 51°18.058 2°53.467 14.1 36 15.7 101540 70
2006-08-30 06:59 51°18.246 2°53.519 14.9 35 15.7 101530 70
2006-08-30 07:00 51°18.434 2°53.542 15 317 15.8 101530 71
2006-08-30 07:01 51°18.602 2°53.454 16.9 321 15.7 101510 70
2006-08-30 07:02 51°18.773 2°53.323 18.8 325 15.7 101550 69
2006-08-30 07:03 51°18.939 2°53.205 14.4 320 15.7 101540 70
2006-08-30 07:04 51°19.022 2°53.146 13 319 15.7 101560 69
2006-08-30 07:05 51°19.062 2°53.13 11 317 15.6 101560 70
2006-08-30 07:06 51°19.096 2°53.108 12.7 326 15.7 101560 71
2006-08-30 07:07 51°19.124 2°53.071 11.1 323 15.6 101570 69
2006-08-30 07:08 51°19.134 2°53.071 10.5 241 15.6 101570 70
2006-08-30 07:09 51°19.132 2°53.089 14.2 256 15.6 101580 71
2006-08-30 07:10 51°19.125 2°53.101 7.9 262 15.7 101590 72
2006-08-30 07:11 51°19.119 2°53.115 9.5 266 15.7 101590 71
2006-08-30 07:12 51°19.114 2°53.129 7.4 264 15.7 101590 73
2006-08-30 07:13 51°19.11 2°53.142 11.3 262 15.8 101590 72
2006-08-30 07:14 51°19.104 2°53.153 7.2 264 15.6 101600 70
2006-08-30 07:15 51°19.097 2°53.164 13.2 260 15.6 101600 70
2006-08-30 07:16 51°19.089 2°53.174 9.1 265 15.6 101600 71
2006-08-30 07:17 51°19.082 2°53.183 7.5 266 15.6 101600 68
2006-08-30 07:18 51°19.072 2°53.19 8.7 34 15.5 101600 69
2006-08-30 07:19 51°19.072 2°53.209 11 258 15.5 101600 68
2006-08-30 07:20 51°19.118 2°53.255 12.5 250 15.6 101600 70
2006-08-30 07:21 51°19.188 2°53.322 11.5 248 15.6 101600 70
2006-08-30 07:22 51°19.258 2°53.389 14.1 253 15.6 101590 69
2006-08-30 07:23 51°19.293 2°53.432 12.6 255 15.8 101610 72
2006-08-30 07:24 51°19.292 2°53.447 7.1 262 15.7 101610 71
2006-08-30 07:25 51°19.285 2°53.462 8.5 266 15.7 101610 70
2006-08-30 07:26 51°19.278 2°53.474 9.7 267 15.7 101620 69
2006-08-30 07:27 51°19.27 2°53.489 7.3 267 15.6 101610 67
2006-08-30 07:28 51°19.266 2°53.503 5.8 262 15.6 101620 67
2006-08-30 07:29 51°19.259 2°53.513 7 264 15.7 101620 69
2006-08-30 07:30 51°19.254 2°53.523 12.6 260 15.7 101630 69
2006-08-30 07:31 51°19.247 2°53.535 12.7 258 15.6 101630 66
2006-08-30 07:32 51°19.239 2°53.544 10.1 262 15.6 101630 68
2006-08-30 07:33 51°19.23 2°53.551 9.8 262 15.7 101650 69
2006-08-30 07:34 51°19.221 2°53.56 6.9 263 15.7 101640 68
2006-08-30 07:35 51°19.22 2°53.575 14.2 257 15.6 101630 67
2006-08-30 07:36 51°19.26 2°53.633 14.4 252 15.7 101620 69
2006-08-30 07:37 51°19.358 2°53.75 13.1 249 15.7 101610 69
2006-08-30 07:38 51°19.462 2°53.893 15.1 250 15.7 101610 70
2006-08-30 07:39 51°19.552 2°54.031 15 257 15.7 101620 69
2006-08-30 07:40 51°19.608 2°54.122 12.3 262 15.7 101630 68
2006-08-30 07:41 51°19.616 2°54.153 9.4 258 15.7 101630 69
2006-08-30 07:42 51°19.605 2°54.157 7.2 265 15.7 101640 69
2006-08-30 07:43 51°19.594 2°54.162 8.5 264 15.7 101640 69
2006-08-30 07:44 51°19.583 2°54.169 9.3 268 15.6 101630 68
2006-08-30 07:45 51°19.573 2°54.176 8.4 265 15.7 101640 68
2006-08-30 07:46 51°19.564 2°54.183 12.2 260 15.6 101640 67
2006-08-30 07:47 51°19.553 2°54.194 13.3 260 15.7 101640 69
2006-08-30 07:48 51°19.546 2°54.201 13 257 15.7 101640 69
2006-08-30 07:49 51°19.537 2°54.208 9.4 262 15.7 101650 68
2006-08-30 07:50 51°19.528 2°54.215 9.4 264 15.7 101660 67
2006-08-30 07:51 51°19.52 2°54.221 9.5 263 15.6 101650 65
2006-08-30 07:52 51°19.51 2°54.227 9 262 15.6 101650 65
2006-08-30 07:53 51°19.501 2°54.234 10.7 261 15.5 101660 67
2006-08-30 07:54 51°19.492 2°54.237 9.2 258 15.6 101650 68
2006-08-30 07:55 51°19.538 2°54.294 14.9 308 15.8 101640 70
2006-08-30 07:56 51°19.643 2°54.419 13.2 304 15.7 101640 68
2006-08-30 07:57 51°19.741 2°54.569 10.5 251 15.7 101650 67
2006-08-30 07:58 51°19.834 2°54.713 14.1 305 15.7 101650 68
2006-08-30 07:59 51°19.886 2°54.79 13.4 256 15.7 101660 69
2006-08-30 08:00 51°19.906 2°54.825 12.8 253 15.6 101660 67
2006-08-30 08:01 51°19.923 2°54.852 8.5 304 15.7 101650 68
2006-08-30 08:02 51°19.92 2°54.859 11.5 305 15.7 101650 68
2006-08-30 08:03 51°19.909 2°54.869 14.4 259 15.7 101660 69
2006-08-30 08:04 51°19.896 2°54.873 10.7 307 15.7 101660 69
2006-08-30 08:05 51°19.882 2°54.874 7.6 264 15.6 101660 70
2006-08-30 08:06 51°19.868 2°54.874 7 263 15.6 101670 70
2006-08-30 08:07 51°19.854 2°54.878 7.7 307 15.5 101670 68
2006-08-30 08:08 51°19.839 2°54.879 8.7 266 15.6 101680 70
2006-08-30 08:09 51°19.824 2°54.88 8.4 304 15.5 101680 68
2006-08-30 08:10 51°19.809 2°54.883 7.1 307 15.5 101670 68
2006-08-30 08:11 51°19.797 2°54.884 7.2 302 15.6 101670 70
2006-08-30 08:12 51°19.783 2°54.887 7.9 267 15.5 101660 67
2006-08-30 08:13 51°19.792 2°54.905 11.2 259 15.5 101680 68
2006-08-30 08:14 51°19.877 2°54.998 13.3 253 15.6 101670 70
2006-08-30 08:15 51°19.98 2°55.127 10.9 252 15.6 101670 69
2006-08-30 08:16 51°20.088 2°55.241 11.9 251 15.7 101670 70
2006-08-30 08:17 51°20.199 2°55.324 14.9 242 15.6 101670 70
2006-08-30 08:18 51°20.305 2°55.408 12.5 308 15.6 101660 69
2006-08-30 08:19 51°20.35 2°55.441 12.3 243 15.7 101670 70
2006-08-30 08:20 51°20.338 2°55.441 11.2 260 15.7 101670 69
2006-08-30 08:21 51°20.325 2°55.442 9.2 263 15.7 101690 69
2006-08-30 08:22 51°20.31 2°55.441 9.3 267 15.7 101690 68
2006-08-30 08:23 51°20.297 2°55.439 7.2 266 15.7 101700 70
2006-08-30 08:24 51°20.283 2°55.438 7.7 265 15.7 101700 69
2006-08-30 08:25 51°20.272 2°55.438 5.6 309 15.6 101700 67
2006-08-30 08:26 51°20.26 2°55.44 8.4 263 15.7 101700 70
2006-08-30 08:27 51°20.247 2°55.441 5.8 263 15.7 101700 68
2006-08-30 08:28 51°20.234 2°55.442 9.9 261 15.7 101710 70
2006-08-30 08:29 51°20.275 2°55.487 10.7 251 15.5 101700 67
2006-08-30 08:30 51°20.364 2°55.582 10.3 301 15.6 101700 69
2006-08-30 08:31 51°20.464 2°55.696 9.4 252 15.7 101710 69
2006-08-30 08:32 51°20.572 2°55.832 11.9 252 15.6 101700 69
2006-08-30 08:33 51°20.675 2°55.94 11.2 247 15.7 101700 70
2006-08-30 08:34 51°20.748 2°56.018 12.5 302 15.6 101720 69
2006-08-30 08:35 51°20.789 2°56.055 12.2 254 15.7 101700 70
2006-08-30 08:36 51°20.799 2°56.065 12.3 304 15.7 101690 69
2006-08-30 08:37 51°20.794 2°56.068 14 255 15.7 101720 69
2006-08-30 08:38 51°20.784 2°56.069 11.6 254 15.6 101710 68
2006-08-30 08:39 51°20.77 2°56.066 6.4 262 15.7 101710 68
2006-08-30 08:40 51°20.754 2°56.06 8.2 265 15.7 101710 69
2006-08-30 08:41 51°20.741 2°56.055 7 303 15.8 101720 69
2006-08-30 08:42 51°20.73 2°56.053 6.1 302 15.7 101720 70
2006-08-30 08:43 51°20.718 2°56.052 8.1 264 15.7 101720 70
2006-08-30 08:44 51°20.704 2°56.052 11.2 261 15.7 101720 69
2006-08-30 08:45 51°20.689 2°56.049 8.2 304 15.6 101720 67
2006-08-30 08:46 51°20.672 2°56.045 7.4 265 15.7 101730 69
2006-08-30 08:47 51°20.656 2°56.041 8.3 265 15.7 101730 67
2006-08-30 08:48 51°20.643 2°56.038 7.7 262 15.7 101730 68
2006-08-30 08:49 51°20.63 2°56.036 6.6 262 15.7 101720 68
2006-08-30 08:50 51°20.617 2°56.03 9.1 266 15.8 101730 71
2006-08-30 08:51 51°20.602 2°56.026 9.2 260 15.7 101730 68
2006-08-30 08:52 51°20.585 2°56.023 10.1 263 15.7 101730 66
2006-08-30 08:53 51°20.612 2°56.065 7.7 306 15.7 101740 66
2006-08-30 08:54 51°20.672 2°56.158 7.7 261 15.7 101730 66
2006-08-30 08:55 51°20.745 2°56.275 13.5 307 15.7 101730 66
2006-08-30 08:56 51°20.85 2°56.386 10.5 253 15.8 101730 68
2006-08-30 08:57 51°20.95 2°56.516 10 307 15.8 101720 69
2006-08-30 08:58 51°21.022 2°56.615 10.5 307 15.8 101740 67
2006-08-30 08:59 51°21.076 2°56.67 11.8 307 15.9 101740 71
2006-08-30 09:00 51°21.119 2°56.738 9.9 301 15.8 101740 68
2006-08-30 09:01 51°21.143 2°56.766 6.2 306 15.7 101740 67
2006-08-30 09:02 51°21.151 2°56.77 11.6 302 15.7 101740 67
2006-08-30 09:03 51°21.15 2°56.768 12.9 302 15.7 101730 68
2006-08-30 09:04 51°21.142 2°56.765 9.9 301 15.9 101750 70
2006-08-30 09:05 51°21.131 2°56.759 13.3 253 15.8 101750 69
2006-08-30 09:06 51°21.119 2°56.753 10 302 15.8 101740 68
2006-08-30 09:07 51°21.105 2°56.747 8 307 15.8 101740 67
2006-08-30 09:08 51°21.091 2°56.741 6.8 307 15.7 101740 66
2006-08-30 09:09 51°21.105 2°56.765 12.6 308 15.7 101760 67
2006-08-30 09:10 51°21.163 2°56.85 7.4 302 15.8 101760 69
2006-08-30 09:11 51°21.221 2°56.968 9.5 303 15.7 101760 68
2006-08-30 09:12 51°21.286 2°57.123 5.4 302 15.7 101750 70
2006-08-30 09:13 51°21.359 2°57.279 5.9 307 15.7 101760 69
2006-08-30 09:14 51°21.411 2°57.379 7.2 263 15.8 101750 71
2006-08-30 09:15 51°21.443 2°57.442 8.8 309 15.7 101750 69
2006-08-30 09:16 51°21.455 2°57.469 7.7 305 15.6 101770 69
2006-08-30 09:17 51°21.459 2°57.474 9.5 260 15.7 101750 69
2006-08-30 09:18 51°21.454 2°57.477 9.5 302 15.8 101750 70
2006-08-30 09:19 51°21.446 2°57.476 9.9 258 15.7 101750 67
2006-08-30 09:20 51°21.435 2°57.476 5.7 302 15.7 101760 67
2006-08-30 09:21 51°21.421 2°57.473 7.9 302 15.8 101760 68
2006-08-30 09:22 51°21.405 2°57.47 6.6 301 15.8 101760 67
2006-08-30 09:23 51°21.388 2°57.466 8.5 263 15.8 101760 68
2006-08-30 09:24 51°21.371 2°57.458 7.2 303 15.7 101770 67
2006-08-30 09:25 51°21.356 2°57.453 8.6 301 15.8 101770 69
2006-08-30 09:26 51°21.342 2°57.447 7.7 307 15.7 101770 68
2006-08-30 09:27 51°21.328 2°57.442 6.3 302 15.7 101780 68
2006-08-30 09:28 51°21.316 2°57.437 6.5 308 15.8 101770 70
2006-08-30 09:29 51°21.301 2°57.433 7.3 303 15.8 101780 69
2006-08-30 09:30 51°21.286 2°57.426 8.3 304 15.7 101780 69
2006-08-30 09:31 51°21.271 2°57.42 7.3 304 15.7 101780 69
2006-08-30 09:32 51°21.256 2°57.414 7.3 307 15.7 101790 69
2006-08-30 09:33 51°21.24 2°57.408 8.4 308 15.6 101780 66
2006-08-30 09:34 51°21.223 2°57.404 7.6 307 15.6 101780 66
2006-08-30 09:35 51°21.209 2°57.4 8.4 262 15.7 101780 68
2006-08-30 09:36 51°21.25 2°57.452 12.3 256 15.9 101790 70
2006-08-30 09:37 51°21.323 2°57.564 10.7 251 15.9 101780 68
2006-08-30 09:38 51°21.408 2°57.722 9.9 259 15.9 101770 67
2006-08-30 09:39 51°21.507 2°57.884 13 304 15.9 101780 67
2006-08-30 09:40 51°21.616 2°58.033 11.5 249 15.9 101780 66
2006-08-30 09:41 51°21.725 2°58.134 12.8 249 15.9 101780 66
2006-08-30 09:42 51°21.772 2°58.159 13.7 257 16 101790 68
2006-08-30 09:43 51°21.777 2°58.162 10.8 309 15.9 101790 66
2006-08-30 09:44 51°21.77 2°58.163 12.2 304 16 101780 67
2006-08-30 09:45 51°21.759 2°58.162 10.6 307 16 101790 68
2006-08-30 09:46 51°21.746 2°58.16 7.2 265 16 101800 69
2006-08-30 09:47 51°21.733 2°58.158 7.7 308 15.8 101790 67
2006-08-30 09:48 51°21.718 2°58.152 7.2 266 15.8 101800 67
2006-08-30 09:49 51°21.703 2°58.146 5.8 265 15.9 101790 67
2006-08-30 09:50 51°21.689 2°58.139 7.3 266 16 101800 68
2006-08-30 09:51 51°21.674 2°58.134 6.7 265 16 101810 70
2006-08-30 09:52 51°21.658 2°58.128 6.9 264 16 101800 68
2006-08-30 09:53 51°21.641 2°58.123 10.3 268 15.9 101800 67
2006-08-30 09:54 51°21.625 2°58.117 8.8 301 15.8 101810 67
2006-08-30 09:55 51°21.61 2°58.108 8.9 306 15.8 101820 68
2006-08-30 09:56 51°21.594 2°58.103 9.9 303 15.8 101800 70
2006-08-30 09:57 51°21.578 2°58.095 6.5 302 15.8 101810 67
2006-08-30 09:58 51°21.559 2°58.089 7.2 305 15.8 101810 68
2006-08-30 09:59 51°21.543 2°58.083 7.5 308 15.7 101810 67
2006-08-30 10:00 51°21.527 2°58.076 5.9 308 15.8 101810 68
2006-08-30 10:01 51°21.51 2°58.07 9 309 15.8 101810 69
2006-08-30 10:02 51°21.495 2°58.065 8.5 308 15.9 101810 70
2006-08-30 10:03 51°21.476 2°58.059 7.7 307 15.8 101820 67
2006-08-30 10:04 51°21.464 2°58.059 8.4 304 15.7 101810 68
2006-08-30 10:05 51°21.471 2°58.073 8.9 307 15.7 101810 68
2006-08-30 10:06 51°21.487 2°58.1 9.1 308 15.7 101810 68
2006-08-30 10:07 51°21.511 2°58.14 13.2 304 15.8 101820 69
2006-08-30 10:08 51°21.541 2°58.185 10.3 308 15.8 101820 69
2006-08-30 10:09 51°21.569 2°58.231 6.1 302 15.8 101820 69
2006-08-30 10:10 51°21.599 2°58.281 6.2 308 15.8 101830 68
2006-08-30 10:11 51°21.627 2°58.33 9.1 305 15.7 101820 67
2006-08-30 10:12 51°21.656 2°58.375 11.1 305 15.8 101810 67
2006-08-30 10:13 51°21.686 2°58.424 8.1 304 15.9 101810 67
2006-08-30 10:14 51°21.714 2°58.468 10.1 301 15.8 101830 65
2006-08-30 10:15 51°21.747 2°58.511 13.9 306 15.9 101810 67
2006-08-30 10:16 51°21.778 2°58.553 11 308 15.9 101820 67
2006-08-30 10:17 51°21.808 2°58.596 10.5 300 15.9 101820 67
2006-08-30 10:18 51°21.842 2°58.643 11 301 16 101830 69
2006-08-30 10:19 51°21.874 2°58.69 10.3 302 16 101820 67
2006-08-30 10:20 51°21.907 2°58.738 10.7 308 16 101820 68
2006-08-30 10:21 51°21.939 2°58.789 6.4 306 16 101810 67
2006-08-30 10:22 51°21.973 2°58.836 11.1 304 15.9 101820 66
2006-08-30 10:23 51°22.009 2°58.881 10.4 261 15.9 101820 66
2006-08-30 10:24 51°22.045 2°58.925 10.4 310 16 101830 67
2006-08-30 10:25 51°22.069 2°58.947 10.3 308 16 101820 68
2006-08-30 10:26 51°22.07 2°58.951 10.9 305 15.9 101810 64
2006-08-30 10:27 51°22.062 2°58.951 12.7 304 16.1 101810 68
2006-08-30 10:28 51°22.049 2°58.952 12.1 303 16.1 101820 67
2006-08-30 10:29 51°22.031 2°58.953 6 307 16.1 101820 67
2006-08-30 10:30 51°22.011 2°58.951 6.3 305 16.1 101830 65
2006-08-30 10:31 51°21.99 2°58.945 7.4 309 16.1 101830 67
2006-08-30 10:32 51°21.968 2°58.942 6.8 300 16.1 101820 69
2006-08-30 10:33 51°21.947 2°58.938 7.3 309 16.1 101830 69
2006-08-30 10:34 51°21.94 2°58.944 11.2 301 16 101830 68
2006-08-30 10:35 51°21.968 2°58.927 10.2 300 16 101820 67
2006-08-30 10:36 51°21.991 2°58.92 11.1 300 16 101820 68
2006-08-30 10:37 51°22.01 2°58.929 10.5 303 16 101810 67
2006-08-30 10:38 51°22.023 2°58.937 11.7 303 16 101830 67
2006-08-30 10:39 51°22.04 2°58.943 10.8 306 16.1 101830 68
2006-08-30 10:40 51°22.061 2°58.947 9.3 302 16.2 101830 69
2006-08-30 10:41 51°22.06 2°58.949 12.1 306 16.2 101820 66
2006-08-30 10:42 51°22.051 2°58.951 12 308 16.1 101830 65
2006-08-30 10:43 51°22.036 2°58.952 10.8 304 16.1 101830 66
2006-08-30 10:44 51°22.018 2°58.95 13.7 255 16.1 101830 66
2006-08-30 10:45 51°21.998 2°58.947 11.5 304 16.1 101830 66
2006-08-30 10:46 51°21.978 2°58.941 7 265 16.1 101850 68
2006-08-30 10:47 51°21.955 2°58.938 8.3 306 16.1 101850 68
2006-08-30 10:48 51°21.932 2°58.93 9.8 304 16.1 101840 68
2006-08-30 10:49 51°21.91 2°58.923 8.1 309 16 101840 67
2006-08-30 10:50 51°21.89 2°58.917 6.5 305 15.8 101850 66
2006-08-30 10:51 51°21.869 2°58.915 6.2 306 15.9 101850 66
2006-08-30 10:52 51°21.849 2°58.912 7.6 307 15.9 101850 67
2006-08-30 10:53 51°21.829 2°58.909 6.4 301 16 101850 70
2006-08-30 10:54 51°21.81 2°58.903 6.3 303 16.1 101840 70
2006-08-30 10:55 51°21.791 2°58.898 5.9 262 16 101850 67
2006-08-30 10:56 51°21.772 2°58.892 5.8 263 16 101850 67
2006-08-30 10:57 51°21.754 2°58.888 7.3 264 16.1 101860 69
2006-08-30 10:58 51°21.769 2°58.908 12.6 255 16 101860 68
2006-08-30 10:59 51°21.836 2°58.965 10.5 258 16.1 101850 68
2006-08-30 11:00 51°21.929 2°59.092 10.9 254 16.1 101850 69
2006-08-30 11:01 51°22.039 2°59.223 10.1 248 16.2 101840 69
2006-08-30 11:02 51°22.16 2°59.342 11.4 243 16.1 101840 68
2006-08-30 11:03 51°22.282 2°59.461 11.5 249 16.1 101860 68
2006-08-30 11:04 51°22.362 2°59.538 11.7 252 16.1 101850 67
2006-08-30 11:05 51°22.379 2°59.547 10.5 246 16.1 101860 66
2006-08-30 11:06 51°22.371 2°59.541 9.8 249 16.1 101850 66
2006-08-30 11:07 51°22.356 2°59.537 9.5 248 16.2 101860 66
2006-08-30 11:08 51°22.332 2°59.531 8.3 261 16.3 101870 68
2006-08-30 11:09 51°22.309 2°59.522 7.4 266 16.2 101870 67
2006-08-30 11:10 51°22.284 2°59.513 6.2 265 16.2 101870 67
2006-08-30 11:11 51°22.262 2°59.506 9.1 269 16.1 101870 66
2006-08-30 11:12 51°22.24 2°59.497 7.4 265 16.1 101870 68
2006-08-30 11:13 51°22.218 2°59.489 8 266 16.2 101870 69
2006-08-30 11:14 51°22.197 2°59.482 7 265 16.2 101870 67
2006-08-30 11:15 51°22.174 2°59.477 9 262 16.2 101880 67
2006-08-30 11:16 51°22.152 2°59.471 8 262 16.1 101880 67
2006-08-30 11:17 51°22.129 2°59.465 5.4 266 16.1 101880 68
2006-08-30 11:18 51°22.106 2°59.46 7.9 262 16.2 101870 71
2006-08-30 11:19 51°22.084 2°59.455 7.9 267 16.1 101870 69
2006-08-30 11:20 51°22.062 2°59.451 8.8 266 16.1 101880 68
2006-08-30 11:21 51°22.041 2°59.448 6.9 263 16.1 101880 66
2006-08-30 11:22 51°22.04 2°59.453 13.8 257 16.2 101880 68
2006-08-30 11:23 51°22.089 2°59.496 10.9 257 16.3 101870 68
2006-08-30 11:24 51°22.189 2°59.621 9.2 254 16.3 101870 67
2006-08-30 11:25 51°22.298 2°59.767 13.3 252 16.3 101870 67
2006-08-30 11:26 51°22.413 2°59.915 11.1 259 16.3 101880 67
2006-08-30 11:27 51°22.526 3°0.061 11.3 250 16.3 101880 67
2006-08-30 11:28 51°22.624 3°0.185 10.9 252 16.4 101870 66
2006-08-30 11:29 51°22.701 3°0.282 10.3 252 16.4 101880 67
2006-08-30 11:30 51°22.741 3°0.328 9.2 262 16.4 101870 65
2006-08-30 11:31 51°22.749 3°0.335 11.5 256 16.4 101890 66
2006-08-30 11:32 51°22.742 3°0.33 14.2 256 16.4 101880 66
2006-08-30 11:33 51°22.726 3°0.324 9.1 259 16.4 101870 66
2006-08-30 11:34 51°22.709 3°0.317 6.3 264 16.4 101880 66
2006-08-30 11:35 51°22.689 3°0.31 7.6 270 16.4 101890 66
2006-08-30 11:36 51°22.669 3°0.301 9.5 269 16.4 101880 66
2006-08-30 11:37 51°22.648 3°0.293 8.9 262 16.4 101890 67
2006-08-30 11:38 51°22.629 3°0.281 6.8 264 16.4 101880 67
2006-08-30 11:39 51°22.609 3°0.273 7.9 264 16.4 101880 67
2006-08-30 11:40 51°22.587 3°0.264 10.1 258 16.3 101880 65
2006-08-30 11:41 51°22.564 3°0.256 9.2 260 16.4 101890 66
2006-08-30 11:42 51°22.547 3°0.252 10.3 261 16.4 101890 66
2006-08-30 11:43 51°22.589 3°0.232 11.1 36 16.4 101880 65
2006-08-30 11:44 51°22.637 3°0.209 11.8 248 16.4 101850 64
2006-08-30 11:45 51°22.657 3°0.199 11.2 251 16.5 101880 65
2006-08-30 11:46 51°22.669 3°0.185 10.7 244 16.6 101890 67
2006-08-30 11:47 51°22.68 3°0.172 10.5 247 16.6 101890 66
2006-08-30 11:48 51°22.686 3°0.16 12 249 16.6 101880 64
2006-08-30 11:49 51°22.69 3°0.146 11 252 16.5 101890 65
2006-08-30 11:50 51°22.697 3°0.13 9.7 249 16.5 101880 66
2006-08-30 11:51 51°22.704 3°0.115 9.8 247 16.5 101890 65
2006-08-30 11:52 51°22.706 3°0.105 12.2 253 16.6 101880 66
2006-08-30 11:53 51°22.722 3°0.094 10.5 248 16.5 101890 65
2006-08-30 11:54 51°22.756 3°0.081 9.7 242 16.5 101890 65
2006-08-30 11:55 51°22.793 3°0.045 8.9 238 16.5 101890 66
2006-08-30 11:56 51°22.84 2°59.977 13.9 330 16.6 101900 67
2006-08-30 11:57 51°22.902 2°59.748 13.8 318 16.6 101860 67
2006-08-30 11:58 51°22.993 2°59.544 14.6 35 16.5 101870 67
2006-08-30 11:59 51°23.099 2°59.52 10.5 251 16.4 101880 63
2006-08-30 12:00 51°23.177 2°59.588 10.1 257 16.5 101900 66
2006-08-30 12:01 51°23.246 2°59.651 11.2 253 16.5 101900 65
2006-08-30 12:02 51°23.281 2°59.682 7.6 262 16.6 101900 65
2006-08-30 12:03 51°23.283 2°59.676 10.4 257 16.6 101900 65
2006-08-30 12:04 51°23.271 2°59.667 11.8 257 16.7 101900 69
2006-08-30 12:05 51°23.255 2°59.657 9.3 255 16.7 101900 68
2006-08-30 12:06 51°23.234 2°59.647 7 265 16.6 101910 67
2006-08-30 12:07 51°23.212 2°59.637 7.2 264 16.6 101900 67
2006-08-30 12:08 51°23.188 2°59.626 7.9 268 16.5 101910 67
2006-08-30 12:09 51°23.164 2°59.616 10.8 270 16.5 101910 67
2006-08-30 12:10 51°23.142 2°59.607 10.8 270 16.4 101910 65
2006-08-30 12:11 51°23.119 2°59.596 10.9 269 16.4 101910 66
2006-08-30 12:12 51°23.096 2°59.584 8.8 267 16.5 101920 67
2006-08-30 12:13 51°23.074 2°59.575 6.8 266 16.6 101910 69
2006-08-30 12:14 51°23.052 2°59.567 6.5 263 16.6 101910 68
2006-08-30 12:15 51°23.037 2°59.562 7.2 259 16.5 101920 68
2006-08-30 12:16 51°23.064 2°59.545 12.5 33 16.6 101920 67
2006-08-30 12:17 51°23.095 2°59.422 13.8 336 16.6 101900 67
2006-08-30 12:18 51°23.065 2°59.186 13.7 348 16.6 101900 65
2006-08-30 12:19 51°22.981 2°58.952 13.7 349 16.5 101860 63
2006-08-30 12:20 51°22.886 2°58.823 9.1 3 16.5 101910 69
2006-08-30 12:21 51°22.829 2°58.758 8.7 357 16.5 101900 69
2006-08-30 12:22 51°22.805 2°58.748 8.8 5 16.5 101910 69
2006-08-30 12:23 51°22.786 2°58.743 10.5 25 16.4 101920 66
2006-08-30 12:24 51°22.763 2°58.734 10.5 24 16.4 101940 66
2006-08-30 12:25 51°22.738 2°58.726 11.2 23 16.4 101940 66
2006-08-30 12:26 51°22.713 2°58.718 10.2 16 16.4 101940 65
2006-08-30 12:27 51°22.688 2°58.709 9.6 16 16.4 101930 64
2006-08-30 12:28 51°22.664 2°58.7 10.5 14 16.4 101940 64
2006-08-30 12:29 51°22.64 2°58.691 12.5 12 16.5 101920 65
2006-08-30 12:30 51°22.616 2°58.685 10.5 21 16.5 101920 65
2006-08-30 12:31 51°22.592 2°58.678 8.8 20 16.5 101930 65
2006-08-30 12:32 51°22.567 2°58.669 9.9 16 16.5 101930 65
2006-08-30 12:33 51°22.543 2°58.659 11 14 16.5 101930 66
2006-08-30 12:34 51°22.482 2°58.601 12.6 356 16.6 101920 67
2006-08-30 12:35 51°22.44 2°58.416 12.2 334 16.5 101930 63
2006-08-30 12:36 51°22.427 2°58.156 14.6 333 16.6 101930 64
2006-08-30 12:37 51°22.442 2°57.929 14.3 326 16.7 101930 64
2006-08-30 12:38 51°22.453 2°57.817 10.8 35 16.8 101920 65
2006-08-30 12:39 51°22.45 2°57.784 11.7 238 16.6 101930 62
2006-08-30 12:40 51°22.435 2°57.776 9.3 250 16.6 101930 63
2006-08-30 12:41 51°22.413 2°57.771 10 257 16.7 101940 66
2006-08-30 12:42 51°22.388 2°57.761 7.8 269 16.7 101960 65
2006-08-30 12:43 51°22.364 2°57.752 10.6 39 16.6 101970 65
2006-08-30 12:44 51°22.342 2°57.744 9.9 268 16.6 101980 63
2006-08-30 12:45 51°22.321 2°57.737 7.7 268 16.6 101940 62
2006-08-30 12:46 51°22.302 2°57.727 6.3 262 16.7 101940 64
2006-08-30 12:47 51°22.281 2°57.72 8 269 16.7 101940 63
2006-08-30 12:48 51°22.261 2°57.712 7 259 16.8 101930 65
2006-08-30 12:49 51°22.239 2°57.706 6.5 261 16.8 101940 67
2006-08-30 12:50 51°22.217 2°57.698 7.5 261 16.8 101940 67
2006-08-30 12:51 51°22.194 2°57.69 6.5 262 16.8 101940 64
2006-08-30 12:52 51°22.171 2°57.685 6.5 263 16.8 101940 65
2006-08-30 12:53 51°22.149 2°57.678 6.7 263 16.7 101940 65
2006-08-30 12:54 51°22.142 2°57.678 9.4 254 16.8 101950 68
2006-08-30 12:55 51°22.18 2°57.642 10.1 317 16.8 101940 66
2006-08-30 12:56 51°22.175 2°57.486 12.2 340 16.7 101950 66
2006-08-30 12:57 51°22.131 2°57.237 14 336 16.6 101910 67
2006-08-30 12:58 51°22.082 2°56.983 12.6 339 16.6 101920 67
2006-08-30 12:59 51°22.025 2°56.79 10.5 344 16.5 101920 66
2006-08-30 13:00 51°21.99 2°56.71 9 338 16.4 101930 67
2006-08-30 13:01 51°21.967 2°56.711 7.9 337 16.4 101960 66
2006-08-30 13:02 51°21.948 2°56.721 7.4 345 16.3 101950 65
2006-08-30 13:03 51°21.933 2°56.733 7.3 1 16.3 101950 66
2006-08-30 13:04 51°21.921 2°56.74 9.4 17 16.3 101950 66
2006-08-30 13:05 51°21.905 2°56.739 9.5 24 16.3 101960 68
2006-08-30 13:06 51°21.886 2°56.735 7.9 25 16.3 101960 67
2006-08-30 13:07 51°21.864 2°56.73 8.2 23 16.4 101960 68
2006-08-30 13:08 51°21.84 2°56.725 10 16 16.3 101960 68
2006-08-30 13:09 51°21.816 2°56.72 10.1 10 16.3 101980 67
2006-08-30 13:10 51°21.795 2°56.715 9.1 15 16.3 101970 67
2006-08-30 13:11 51°21.774 2°56.711 9.7 16 16.3 101960 68
2006-08-30 13:12 51°21.753 2°56.707 8.7 18 16.3 101960 68
2006-08-30 13:13 51°21.733 2°56.705 8.4 20 16.3 101970 67
2006-08-30 13:14 51°21.708 2°56.701 9.5 17 16.3 101960 68
2006-08-30 13:15 51°21.684 2°56.697 8.5 12 16.3 101960 67
2006-08-30 13:16 51°21.618 2°56.632 12 348 16.4 101960 68
2006-08-30 13:17 51°21.589 2°56.439 12.8 331 16.4 101960 66
2006-08-30 13:18 51°21.602 2°56.213 13.2 332 16.4 101950 65
2006-08-30 13:19 51°21.594 2°55.981 14.5 333 16.6 101950 66
2006-08-30 13:20 51°21.593 2°55.793 10.2 335 16.6 101950 65
2006-08-30 13:21 51°21.576 2°55.704 8.3 341 16.6 101950 64
2006-08-30 13:22 51°21.555 2°55.701 9.2 347 16.6 101960 64
2006-08-30 13:23 51°21.539 2°55.711 9.5 8 16.6 101950 64
2006-08-30 13:24 51°21.522 2°55.715 9.7 17 16.5 101970 65
2006-08-30 13:25 51°21.504 2°55.718 9.3 24 16.5 101970 64
2006-08-30 13:26 51°21.486 2°55.719 8.7 26 16.5 101970 63
2006-08-30 13:27 51°21.466 2°55.717 8 24 16.7 101960 67
2006-08-30 13:28 51°21.445 2°55.716 9.8 19 16.7 101970 65
2006-08-30 13:29 51°21.425 2°55.716 9.7 22 16.8 101970 65
2006-08-30 13:30 51°21.404 2°55.717 8.4 23 16.7 101970 63
2006-08-30 13:31 51°21.38 2°55.714 8.9 19 16.8 101970 67
2006-08-30 13:32 51°21.357 2°55.714 9.7 16 16.8 101960 66
2006-08-30 13:33 51°21.334 2°55.716 9.3 14 16.9 101960 67
2006-08-30 13:34 51°21.311 2°55.717 9.2 11 16.8 101970 64
2006-08-30 13:35 51°21.289 2°55.72 6.9 14 16.8 101970 64
2006-08-30 13:36 51°21.267 2°55.719 8.7 14 16.9 101970 65
2006-08-30 13:37 51°21.244 2°55.721 9.4 16 16.8 101960 63
2006-08-30 13:38 51°21.222 2°55.726 9 26 16.8 101960 62
2006-08-30 13:39 51°21.201 2°55.731 8.7 22 16.8 101970 64
2006-08-30 13:40 51°21.181 2°55.735 8.5 13 16.8 101970 63
2006-08-30 13:41 51°21.162 2°55.742 8.6 20 16.8 101970 63
2006-08-30 13:42 51°21.142 2°55.749 8.4 17 16.9 101980 66
2006-08-30 13:43 51°21.088 2°55.728 9.2 359 16.8 101970 63
2006-08-30 13:44 51°21.032 2°55.643 11.6 341 16.8 101950 65
2006-08-30 13:45 51°21.013 2°55.53 10.2 333 16.8 101950 65
2006-08-30 13:46 51°20.999 2°55.383 13.7 337 16.8 101960 62
2006-08-30 13:47 51°20.991 2°55.142 14 332 16.8 101950 62
2006-08-30 13:48 51°20.991 2°54.887 12.6 332 16.9 101960 64
2006-08-30 13:49 51°20.991 2°54.656 10.3 332 16.9 101950 63
2006-08-30 13:50 51°20.987 2°54.545 9.4 328 16.9 101960 62
2006-08-30 13:51 51°20.977 2°54.529 10 41 16.8 101970 61
2006-08-30 13:52 51°20.966 2°54.538 9.6 31 16.9 101950 62
2006-08-30 13:53 51°20.965 2°54.531 8.7 319 16.9 101960 61
2006-08-30 13:54 51°20.959 2°54.537 9.5 318 16.9 101960 62
2006-08-30 13:55 51°20.945 2°54.555 9.4 31 16.9 101960 60
2006-08-30 13:56 51°20.926 2°54.575 9.9 253 16.9 101970 61
2006-08-30 13:57 51°20.906 2°54.586 6.5 263 17 101960 62
2006-08-30 13:58 51°20.889 2°54.597 10 267 16.9 101980 61
2006-08-30 13:59 51°20.872 2°54.609 5.8 265 16.9 101970 61
2006-08-30 14:00 51°20.856 2°54.622 11 269 17 101970 61
2006-08-30 14:01 51°20.84 2°54.636 8.2 268 17 101970 62
2006-08-30 14:02 51°20.824 2°54.652 6.6 267 17 101970 62
2006-08-30 14:03 51°20.81 2°54.669 6.7 265 17 101970 63
2006-08-30 14:04 51°20.796 2°54.685 5.3 262 17 101970 62
2006-08-30 14:05 51°20.782 2°54.704 7.1 262 17 101980 60
2006-08-30 14:06 51°20.768 2°54.721 9.1 268 17.1 101980 62
2006-08-30 14:07 51°20.755 2°54.741 6.5 263 17.1 101980 61
2006-08-30 14:08 51°20.745 2°54.761 7.5 262 17.1 101980 63
2006-08-30 14:09 51°20.732 2°54.782 8.9 260 17.2 101980 63
2006-08-30 14:10 51°20.72 2°54.802 7.3 260 17.2 101980 62
2006-08-30 14:11 51°20.745 2°54.816 11.2 238 17.2 101980 63
2006-08-30 14:12 51°20.78 2°54.688 12.7 338 17.2 101970 63
2006-08-30 14:13 51°20.711 2°54.439 14.2 338 17.1 101930 60
2006-08-30 14:14 51°20.638 2°54.155 14.6 343 17.1 101950 61
2006-08-30 14:15 51°20.567 2°53.873 14.5 343 17.1 101940 61
2006-08-30 14:16 51°20.493 2°53.622 12.8 344 17.1 101950 63
2006-08-30 14:17 51°20.448 2°53.491 11.6 344 17.1 101950 62
2006-08-30 14:18 51°20.42 2°53.427 9.4 341 17 101960 63
2006-08-30 14:19 51°20.408 2°53.378 9.6 330 17 101970 63
2006-08-30 14:20 51°20.398 2°53.361 8.3 348 17 101970 61
2006-08-30 14:21 51°20.386 2°53.373 7.2 7 17 101980 63
2006-08-30 14:22 51°20.374 2°53.396 9.7 15 16.9 101980 63
2006-08-30 14:23 51°20.363 2°53.421 10.2 11 16.9 101980 64
2006-08-30 14:24 51°20.352 2°53.446 9.3 17 16.9 101980 62
2006-08-30 14:25 51°20.341 2°53.47 10.8 11 17 101980 64
2006-08-30 14:26 51°20.331 2°53.497 10 7 17 101980 63
2006-08-30 14:27 51°20.32 2°53.522 9.1 14 17 101980 63
2006-08-30 14:28 51°20.311 2°53.552 7.9 11 17 101990 63
2006-08-30 14:29 51°20.304 2°53.582 7.9 15 16.9 101980 60
2006-08-30 14:30 51°20.298 2°53.613 9.5 21 17 101970 63
2006-08-30 14:31 51°20.293 2°53.643 9.6 23 17 101970 62
2006-08-30 14:32 51°20.285 2°53.674 9.9 22 17 101980 62
2006-08-30 14:33 51°20.277 2°53.706 9 18 17 101980 62
2006-08-30 14:34 51°20.269 2°53.737 9.2 18 17.1 101970 62
2006-08-30 14:35 51°20.262 2°53.767 9.8 16 17.1 101970 63
2006-08-30 14:36 51°20.254 2°53.797 10 12 17 101980 61
2006-08-30 14:37 51°20.247 2°53.826 9.5 9 17 101990 62
2006-08-30 14:38 51°20.236 2°53.853 8.4 11 17.1 101980 65
2006-08-30 14:39 51°20.148 2°53.809 11.5 351 17.1 101980 64
2006-08-30 14:40 51°19.99 2°53.683 13.1 353 17.1 101960 64
2006-08-30 14:41 51°19.818 2°53.56 13 353 17.1 101950 62
2006-08-30 14:42 51°19.644 2°53.448 12.6 356 17.1 101960 63
2006-08-30 14:43 51°19.466 2°53.342 12.2 356 17.1 101950 62
2006-08-30 14:44 51°19.287 2°53.233 12.7 353 17.1 101950 63
2006-08-30 14:45 51°19.109 2°53.127 13.6 356 17.1 101940 60
2006-08-30 14:46 51°18.93 2°53.024 12.4 357 17.1 101950 60
2006-08-30 14:47 51°18.753 2°52.922 10.9 356 17.1 101960 62
2006-08-30 14:48 51°18.574 2°52.834 11.2 359 17.1 101950 60
2006-08-30 14:49 51°18.397 2°52.74 11 358 17.1 101960 60
2006-08-30 14:50 51°18.22 2°52.652 11.2 355 17.1 101960 61
2006-08-30 14:51 51°18.04 2°52.579 11.8 360 17.1 101950 60
2006-08-30 14:52 51°17.861 2°52.505 12.2 357 17.2 101950 61
2006-08-30 14:53 51°17.683 2°52.425 11.4 356 17.1 101980 59
2006-08-30 14:54 51°17.504 2°52.35 12.3 355 17.2 101950 60
2006-08-30 14:55 51°17.326 2°52.27 10.4 360 17.2 101960 60
2006-08-30 14:56 51°17.138 2°52.299 10.1 8 17.2 101970 62
2006-08-30 14:57 51°16.956 2°52.411 8.6 8 17.2 101980 62
2006-08-30 14:58 51°16.778 2°52.551 7 8 17.2 101990 59
2006-08-30 14:59 51°16.603 2°52.703 6.5 14 17.2 101990 60
2006-08-30 15:00 51°16.422 2°52.855 8.9 11 17.3 101990 61
2006-08-30 15:01 51°16.245 2°52.991 7.9 18 17.3 101990 59
2006-08-30 15:02 51°16.062 2°53.125 6.3 15 17.4 101990 59
2006-08-30 15:03 51°15.885 2°53.266 7.1 11 17.4 101980 61
2006-08-30 15:04 51°15.709 2°53.408 6.3 11 17.5 101990 61
2006-08-30 15:05 51°15.528 2°53.548 8.3 14 17.5 102000 63
2006-08-30 15:06 51°15.35 2°53.681 8.5 11 17.5 101990 61
2006-08-30 15:07 51°15.171 2°53.791 8.7 8 17.4 101990 62
2006-08-30 15:08 51°15.002 2°53.815 8.4 7 17.3 101990 59
2006-08-30 15:09 51°14.876 2°53.831 9.4 14 17.4 101980 61
2006-08-30 15:10 51°14.752 2°53.952 5.1 28 17.4 101990 58
2006-08-30 15:11 51°14.63 2°54.151 4.3 24 17.5 102010 63
2006-08-30 15:12 51°14.532 2°54.402 1.2 40 17.5 102000 59
2006-08-30 15:13 51°14.452 2°54.704 2.1 24 17.6 102010 59
2006-08-30 15:14 51°14.38 2°55.02 2.1 33 17.7 102010 62
2006-08-30 15:15 51°14.267 2°55.264 2.4 24 17.7 102000 59
2006-08-30 15:16 51°14.159 2°55.393 7.9 23 17.7 102010 57
2006-08-30 15:17 51°14.044 2°55.478 4.3 32 17.7 102000 56
2006-08-30 15:18 51°13.929 2°55.56 4.6 15 17.8 102000 55
2006-08-30 15:19 51°13.816 2°55.644 3 11 17.9 102000 56
2006-08-30 15:20 51°13.729 2°55.748 1.3 44 18 102000 54
2006-08-30 15:21 51°13.682 2°55.849 4.9 35 18.1 102000 55
2006-08-30 15:22 51°13.645 2°55.934 3 38 18.3 102000 55
2006-08-30 15:23 51°13.619 2°56.009 4.2 35 18.3 102000 54
2006-08-30 15:24 51°13.608 2°56.06 4.4 32 18.2 102000 55